Time;durP1;ratioP1;P1;durP2;ratioP2;P2;SDS_P1;SDS_P2;PMS_P1;PMS_P2;Temp;Humidity;BMP_temperature;BMP_pressure;BME280_temperature;BME280_humidity;BME280_pressure;Samples;Min_cycle;Max_cycle;Signal;HPM_P1;HPM_P2
2023/10/11 00:01:01;;;;;;;6.35;1.50;;;;;;;15.23;49.16;100868.69;5147457;27;20491;-82
2023/10/11 00:05:53;;;;;;;2.85;1.27;;;;;;;15.25;48.76;100898.84;5136472;27;20050;-83
2023/10/11 00:08:19;;;;;;;3.42;1.30;;;;;;;15.46;47.93;100920.84;5133922;27;20031;-83
2023/10/11 00:10:53;;;;;;;3.85;1.48;;;;;;;15.08;48.50;100897.88;5135175;27;20019;-83
2023/10/11 00:13:22;;;;;;;6.55;1.40;;;;;;;14.91;48.54;100876.19;5138652;27;20106;-82
2023/10/11 00:15:49;;;;;;;3.80;1.40;;;;;;;15.34;48.28;100906.56;5148036;27;20027;-82
2023/10/11 00:18:19;;;;;;;6.05;1.42;;;;;;;15.04;48.03;100896.69;5134951;27;20564;-83
2023/10/11 00:20:50;;;;;;;5.60;1.55;;;;;;;15.24;47.92;100909.81;5135582;27;20050;-82
2023/10/11 00:23:16;;;;;;;10.07;1.52;;;;;;;15.03;47.77;100871.66;5135743;27;20392;-82
2023/10/11 00:25:42;;;;;;;5.32;1.35;;;;;;;15.05;47.67;100895.63;5141331;27;20605;-83
2023/10/11 00:28:08;;;;;;;5.70;0.95;;;;;;;14.95;48.02;100892.66;5144736;27;20864;-82
2023/10/11 00:30:40;;;;;;;5.53;1.23;;;;;;;15.10;47.64;100897.63;5138334;27;20034;-82
2023/10/11 00:33:10;;;;;;;7.18;1.52;;;;;;;14.80;48.09;100869.72;5144572;27;20403;-84
2023/10/11 00:35:48;;;;;;;6.47;1.33;;;;;;;15.25;47.95;100909.59;5146626;27;20026;-82
2023/10/11 00:38:18;;;;;;;4.93;1.40;;;;;;;15.09;47.72;100888.75;5155083;27;20026;-83
2023/10/11 00:41:15;;;;;;;3.20;1.52;;;;;;;14.98;48.41;100908.34;5145141;27;20031;-82
2023/10/11 00:43:52;;;;;;;3.93;1.87;;;;;;;15.08;48.23;100903.25;5135412;27;20076;-82
2023/10/11 00:46:37;;;;;;;3.85;1.20;;;;;;;15.08;48.60;100903.25;5145445;27;20268;-84
2023/10/11 00:49:12;;;;;;;2.50;1.13;;;;;;;14.98;48.84;100892.22;5134922;27;20043;-81
2023/10/11 00:51:41;;;;;;;3.95;1.15;;;;;;;14.94;48.54;100901.78;5134725;27;20023;-82
2023/10/11 00:54:07;;;;;;;4.75;1.30;;;;;;;14.95;49.17;100908.78;5147718;27;20033;-82
2023/10/11 00:56:33;;;;;;;4.60;1.33;;;;;;;14.86;48.87;100884.13;5146331;27;20110;-82
2023/10/11 00:59:10;;;;;;;5.43;1.40;;;;;;;15.13;48.77;100921.34;5132781;27;20114;-81
2023/10/11 01:01:37;;;;;;;3.47;1.42;;;;;;;14.85;49.47;100914.69;5136900;27;20041;-82
2023/10/11 01:04:04;;;;;;;3.35;1.33;;;;;;;14.90;49.23;100917.53;5151374;27;20038;-83
2023/10/11 01:06:29;;;;;;;4.80;1.33;;;;;;;14.72;49.48;100875.41;5145761;27;20087;-81
2023/10/11 01:08:55;;;;;;;4.63;1.30;;;;;;;15.05;49.12;100917.13;5148727;27;20026;-82
2023/10/11 01:11:22;;;;;;;5.72;1.50;;;;;;;14.75;49.40;100907.19;5147443;27;20395;-83
2023/10/11 01:13:53;;;;;;;3.33;1.15;;;;;;;14.84;49.32;100895.06;5149568;27;20023;-83
2023/10/11 01:16:26;;;;;;;3.00;1.40;;;;;;;15.07;48.81;100918.50;5141302;27;20035;-86
2023/10/11 01:18:52;;;;;;;4.53;1.30;;;;;;;15.05;49.27;100925.97;5145403;27;20031;-82
2023/10/11 01:21:19;;;;;;;2.58;1.30;;;;;;;14.84;49.53;100929.16;5149858;27;20419;-83
2023/10/11 01:23:44;;;;;;;3.70;1.20;;;;;;;15.01;48.94;100916.75;5155818;27;20031;-83
2023/10/11 01:26:10;;;;;;;5.63;1.10;;;;;;;14.93;48.93;100929.66;5144014;27;20061;-83
2023/10/11 01:28:44;;;;;;;4.63;1.60;;;;;;;14.98;48.67;100935.19;5157957;27;20038;-87
2023/10/11 01:31:10;;;;;;;6.70;1.55;;;;;;;14.91;48.36;100927.19;5142026;27;20026;-82
2023/10/11 01:33:43;;;;;;;4.00;1.15;;;;;;;14.68;48.59;100935.16;5140663;27;20030;-84
2023/10/11 01:36:10;;;;;;;3.75;1.20;;;;;;;14.70;48.88;100928.50;5136407;27;20054;-81
2023/10/11 01:38:46;;;;;;;4.77;1.47;;;;;;;14.71;48.83;100924.78;5134986;27;20027;-82
2023/10/11 01:41:18;;;;;;;3.30;1.40;;;;;;;14.38;49.46;100901.78;5135062;27;20268;-85
2023/10/11 01:43:46;;;;;;;4.20;1.52;;;;;;;14.70;49.01;100952.66;5131868;27;20035;-82
2023/10/11 01:46:18;;;;;;;5.57;1.30;;;;;;;14.76;49.03;100949.09;5139239;27;20157;-85
2023/10/11 01:48:45;;;;;;;4.35;1.30;;;;;;;14.47;49.85;100961.38;5133655;27;20122;-80
2023/10/11 01:51:11;;;;;;;4.18;1.60;;;;;;;14.42;49.89;100948.59;5125219;27;20008;-80
2023/10/11 01:53:36;;;;;;;3.83;1.20;;;;;;;14.45;49.53;100941.97;5133197;27;20498;-81
2023/10/11 01:56:03;;;;;;;6.38;1.50;;;;;;;14.42;49.52;100937.84;5132657;27;20027;-84
2023/10/11 01:58:28;;;;;;;5.00;1.35;;;;;;;14.50;49.21;100954.72;5139406;27;20391;-82
2023/10/11 02:00:55;;;;;;;8.90;1.77;;;;;;;14.39;48.99;100940.19;5132512;27;20023;-79
2023/10/11 02:03:24;;;;;;;4.70;1.40;;;;;;;14.65;48.55;100968.66;5131954;27;20099;-79
2023/10/11 02:05:52;;;;;;;5.05;1.52;;;;;;;14.49;49.10;100963.84;5135416;27;20054;-78
2023/10/11 02:08:18;;;;;;;5.45;1.55;;;;;;;14.53;48.91;100959.66;5132968;27;20043;-79
2023/10/11 02:10:44;;;;;;;4.05;1.70;;;;;;;14.48;48.85;100965.69;5151299;27;20030;-82
2023/10/11 02:13:10;;;;;;;4.80;1.42;;;;;;;14.52;48.70;100976.78;5149285;27;20058;-82
2023/10/11 02:15:37;;;;;;;4.95;1.70;;;;;;;14.25;49.25;100974.38;5136616;27;20035;-80
2023/10/11 02:18:12;;;;;;;3.58;1.40;;;;;;;14.37;48.88;100977.16;5133082;27;20465;-81
2023/10/11 02:20:44;;;;;;;5.30;1.55;;;;;;;14.51;48.31;100975.16;5133716;27;20031;-81
2023/10/11 02:23:11;;;;;;;3.85;1.70;;;;;;;14.72;48.24;101000.78;5133095;27;20392;-81
2023/10/11 02:25:44;;;;;;;4.78;1.30;;;;;;;14.46;48.75;100997.28;5135207;27;20035;-84
2023/10/11 02:28:09;;;;;;;5.65;1.50;;;;;;;14.62;48.17;100991.38;5132271;27;20106;-84
2023/10/11 02:30:38;;;;;;;3.75;1.48;;;;;;;14.51;48.60;101004.69;5131363;27;20087;-82
2023/10/11 02:33:07;;;;;;;8.20;1.90;;;;;;;14.62;48.38;101006.66;5142197;27;20118;-82
2023/10/11 02:35:49;;;;;;;8.75;1.63;;;;;;;14.79;48.35;101018.47;5136354;27;20035;-79
2023/10/11 02:38:21;;;;;;;5.90;1.50;;;;;;;14.47;48.43;100991.69;5145055;27;20411;-82
2023/10/11 02:40:55;;;;;;;2.65;1.38;;;;;;;14.50;48.76;101005.72;5131814;27;20047;-81
2023/10/11 02:43:22;;;;;;;4.65;1.48;;;;;;;14.35;48.41;100990.78;5130403;27;20034;-81
2023/10/11 02:45:47;;;;;;;6.90;1.55;;;;;;;14.59;48.46;101013.31;5132690;27;20031;-80
2023/10/11 02:48:13;;;;;;;4.75;1.65;;;;;;;14.77;48.04;101020.56;5135574;27;20415;-83
2023/10/11 02:50:38;;;;;;;3.90;1.80;;;;;;;14.48;48.09;101005.94;5131936;27;20392;-82
2023/10/11 02:53:12;;;;;;;5.03;1.85;;;;;;;14.47;47.91;101002.44;5139553;27;20054;-81
2023/10/11 02:55:38;;;;;;;4.45;1.70;;;;;;;14.65;47.85;101016.97;5150164;27;20055;-82
2023/10/11 02:58:09;;;;;;;4.55;1.38;;;;;;;14.47;48.09;101007.00;5137288;27;20134;-83
2023/10/11 03:00:37;;;;;;;4.75;1.30;;;;;;;14.32;48.43;100985.84;5132597;27;20172;-82
2023/10/11 03:03:08;;;;;;;6.72;1.65;;;;;;;14.42;47.79;101013.00;5136991;27;20109;-81
2023/10/11 03:05:38;;;;;;;4.00;1.42;;;;;;;14.63;47.53;101027.09;5152222;27;20018;-81
2023/10/11 03:08:13;;;;;;;6.03;1.33;;;;;;;14.44;47.61;101021.69;5133356;27;20035;-83
2023/10/11 03:10:53;;;;;;;5.00;1.77;;;;;;;14.66;46.78;100997.13;5138570;27;20448;-82
2023/10/11 03:13:29;;;;;;;5.05;1.98;;;;;;;14.37;47.09;100988.72;5148255;27;20030;-81
2023/10/11 03:15:55;;;;;;;5.40;1.80;;;;;;;14.54;47.16;101004.22;5149967;27;20023;-81
2023/10/11 03:18:32;;;;;;;6.18;1.98;;;;;;;14.64;47.16;101010.75;5138971;27;20113;-82
2023/10/11 03:21:19;;;;;;;6.55;1.83;;;;;;;14.49;47.98;101023.69;5135982;27;20015;-81
2023/10/11 03:23:47;;;;;;;3.65;1.38;;;;;;;14.61;47.43;101029.19;5135390;27;20084;-82
2023/10/11 03:29:03;;;;;;;5.68;1.48;;;;;;;14.62;47.41;101028.13;5133123;27;20043;-83
2023/10/11 03:31:33;;;;;;;7.13;1.80;;;;;;;14.60;47.27;101032.91;5135391;27;20059;-81
2023/10/11 03:34:00;;;;;;;6.53;2.13;;;;;;;14.56;47.07;101012.91;5134841;27;20059;-81
2023/10/11 03:36:34;;;;;;;8.80;2.75;;;;;;;14.75;46.72;101037.91;5134075;27;20035;-82
2023/10/11 03:39:08;;;;;;;4.82;2.17;;;;;;;14.39;47.22;101024.19;5138008;27;20031;-83
2023/10/11 03:41:35;;;;;;;4.40;1.80;;;;;;;14.42;47.21;101021.06;5135447;27;20042;-82
2023/10/11 03:44:09;;;;;;;6.72;2.00;;;;;;;14.63;46.46;101045.91;5133952;27;20034;-83
2023/10/11 03:46:35;;;;;;;7.88;2.00;;;;;;;14.66;46.63;101042.75;5137777;27;20031;-81
2023/10/11 03:51:59;;;;;;;5.78;2.00;;;;;;;14.61;46.19;101047.97;5122347;27;20031;-81
2023/10/11 03:54:25;;;;;;;6.18;1.80;;;;;;;14.18;46.96;101008.47;5146816;27;20023;-82
2023/10/11 03:56:55;;;;;;;5.32;1.90;;;;;;;14.49;46.64;101044.34;5138855;27;20037;-82
2023/10/11 03:59:26;;;;;;;2.85;1.60;;;;;;;14.56;46.78;101063.91;5147241;27;20115;-82
2023/10/11 04:01:53;;;;;;;5.47;1.58;;;;;;;14.61;46.54;101064.09;5146289;27;20037;-82
2023/10/11 04:04:22;;;;;;;2.92;1.52;;;;;;;14.35;47.10;101028.34;5156266;27;20727;-82
2023/10/11 04:06:51;;;;;;;3.17;1.67;;;;;;;14.31;46.97;101020.97;5139882;27;20680;-82
2023/10/11 04:09:22;;;;;;;4.88;1.60;;;;;;;14.42;46.85;101023.72;5145933;27;20407;-82
2023/10/11 04:12:00;;;;;;;3.85;1.58;;;;;;;14.65;46.32;101043.81;5134935;27;20051;-81
2023/10/11 04:14:44;;;;;;;5.55;1.50;;;;;;;14.72;46.25;101060.66;5132075;27;20062;-84
2023/10/11 04:19:47;;;;;;;2.83;1.45;;;;;;;14.29;46.84;101037.28;5133869;27;20403;-81
2023/10/11 04:22:16;;;;;;;12.15;2.35;;;;;;;14.64;46.28;101058.25;5132115;27;20039;-81
2023/10/11 04:24:41;;;;;;;7.43;1.85;;;;;;;14.73;46.86;101064.16;5132246;27;20030;-81
2023/10/11 04:27:45;;;;;;;8.65;2.03;;;;;;;14.62;47.24;101061.16;5132293;27;20041;-82
2023/10/11 04:30:17;;;;;;;5.05;1.77;;;;;;;14.55;46.62;101059.56;5149394;27;20027;-81
2023/10/11 04:32:45;;;;;;;4.57;1.70;;;;;;;14.62;46.78;101057.66;5140315;27;20030;-82
2023/10/11 04:35:25;;;;;;;4.75;1.63;;;;;;;14.52;47.03;101070.75;5136505;27;20084;-81
2023/10/11 04:37:54;;;;;;;4.32;1.50;;;;;;;14.55;46.99;101075.69;5150103;27;20030;-82
2023/10/11 04:40:34;;;;;;;5.07;1.58;;;;;;;14.18;47.93;101060.28;5121520;27;20027;-81
2023/10/11 04:43:08;;;;;;;6.60;2.35;;;;;;;14.40;46.43;101057.22;5133604;27;20035;-81
2023/10/11 04:45:44;;;;;;;7.20;1.65;;;;;;;14.93;46.02;101085.44;5133829;27;20015;-83
2023/10/11 04:48:15;;;;;;;6.07;1.48;;;;;;;14.70;45.71;101078.84;5119328;27;20495;-84
2023/10/11 04:50:47;;;;;;;2.97;1.20;;;;;;;14.75;46.29;101081.72;5131443;27;20059;-82
2023/10/11 04:53:17;;;;;;;6.05;1.60;;;;;;;14.70;45.93;101084.22;5132621;27;20079;-82
2023/10/11 04:55:47;;;;;;;9.63;1.75;;;;;;;14.63;46.02;101072.75;5147784;27;20079;-83
2023/10/11 04:58:21;;;;;;;4.97;1.40;;;;;;;14.89;44.98;101108.41;5134867;27;20022;-82
2023/10/11 05:00:48;;;;;;;6.30;1.52;;;;;;;14.94;45.58;101073.69;5112923;28;20079;-83
2023/10/11 05:03:17;;;;;;;4.20;1.58;;;;;;;15.02;45.03;101087.63;5141906;27;20031;-84
2023/10/11 05:05:58;;;;;;;5.18;1.40;;;;;;;14.89;45.37;101097.69;5148004;27;20407;-82
2023/10/11 05:11:36;;;;;;;5.78;1.55;;;;;;;14.92;44.95;101103.44;5089387;28;20024;-81
2023/10/11 05:19:55;;;;;;;7.35;1.60;;;;;;;15.05;44.88;101127.47;5133143;27;20047;-87
2023/10/11 05:36:14;;;;;;;7.32;1.70;;;;;;;14.76;45.65;101131.69;5111824;27;20034;-82
2023/10/11 05:52:18;;;;;;;3.10;1.17;;;;;;;15.16;45.31;101157.31;5153390;27;20033;-83
2023/10/11 05:54:49;;;;;;;6.03;1.38;;;;;;;15.10;45.37;101147.47;5149476;27;20022;-84
2023/10/11 05:57:15;;;;;;;4.97;1.67;;;;;;;14.82;45.90;101151.47;5132479;27;20023;-83
2023/10/11 05:59:47;;;;;;;6.93;1.80;;;;;;;14.99;46.06;101140.97;5136906;27;20033;-83
2023/10/11 06:02:18;;;;;;;5.28;1.80;;;;;;;15.18;45.07;101149.84;5138638;27;20033;-83
2023/10/11 06:04:45;;;;;;;5.22;1.40;;;;;;;15.13;45.57;101163.97;5149137;27;20030;-83
2023/10/11 06:07:13;;;;;;;6.97;1.55;;;;;;;15.17;45.28;101151.72;5131091;27;20034;-83
2023/10/11 06:09:52;;;;;;;14.15;2.55;;;;;;;15.27;45.61;101160.09;5136284;27;20129;-83
2023/10/11 06:12:26;;;;;;;5.53;1.70;;;;;;;15.13;45.51;101147.84;5144261;27;20631;-87
2023/10/11 06:14:53;;;;;;;5.80;1.55;;;;;;;15.50;44.30;101185.50;5133402;27;20045;-84
2023/10/11 06:17:32;;;;;;;5.82;1.35;;;;;;;15.29;44.99;101175.19;5133226;27;20031;-82
2023/10/11 06:20:10;;;;;;;7.45;1.60;;;;;;;15.19;45.08;101146.13;5110266;28;20444;-84
2023/10/11 06:22:36;;;;;;;8.00;1.73;;;;;;;15.45;45.44;101182.66;5144473;27;20110;-83
2023/10/11 06:25:07;;;;;;;4.80;1.60;;;;;;;15.35;45.34;101179.69;5132817;27;20109;-83
2023/10/11 06:28:09;;;;;;;8.70;1.70;;;;;;;15.44;45.03;101179.13;5131903;27;20134;-83
2023/10/11 06:30:18;;;;;;;6.90;1.67;;;;;;;15.20;45.71;101172.78;5134045;27;20027;-83
2023/10/11 06:32:43;;;;;;;10.95;4.47;;;;;;;15.34;44.78;101169.94;5143708;27;20034;-83
2023/10/11 06:35:16;;;;;;;12.30;3.83;;;;;;;15.80;43.75;101193.66;5130803;27;20042;-82
2023/10/11 06:37:42;;;;;;;6.95;2.17;;;;;;;15.58;44.43;101185.19;5142487;27;20061;-83
2023/10/11 06:40:08;;;;;;;8.10;3.95;;;;;;;15.26;44.50;101166.53;5131927;27;20058;-81
2023/10/11 06:42:33;;;;;;;5.38;1.60;;;;;;;15.58;44.50;101182.50;5141299;27;20395;-82
2023/10/11 06:45:05;;;;;;;6.55;1.50;;;;;;;15.53;45.04;101190.44;5131926;27;20043;-82
2023/10/11 06:47:35;;;;;;;4.93;1.73;;;;;;;15.44;45.06;101186.38;5139571;27;20098;-81
2023/10/11 06:50:10;;;;;;;21.88;12.55;;;;;;;15.48;45.35;101198.34;5145430;27;20027;-81
2023/10/11 06:52:37;;;;;;;5.90;1.48;;;;;;;15.76;44.82;101202.41;5132996;27;20027;-81
2023/10/11 06:57:40;;;;;;;7.28;1.98;;;;;;;15.76;44.77;101213.16;5131767;27;20035;-84
2023/10/11 07:03:09;;;;;;;10.15;1.70;;;;;;;15.72;44.30;101217.31;5121274;27;20169;-83
2023/10/11 07:05:40;;;;;;;7.05;1.80;;;;;;;15.66;44.94;101203.72;5127956;27;20039;-82
2023/10/11 07:08:09;;;;;;;10.38;2.15;;;;;;;15.90;44.61;101190.44;5134115;27;20035;-81
2023/10/11 07:10:35;;;;;;;17.30;11.18;;;;;;;15.81;44.11;101207.91;5117424;27;20423;-81
2023/10/11 07:13:04;;;;;;;7.00;2.20;;;;;;;15.74;44.51;101199.13;5132411;27;20480;-81
2023/10/11 07:15:40;;;;;;;7.40;2.03;;;;;;;16.04;44.32;101218.81;5125269;28;20023;-85
2023/10/11 07:18:11;;;;;;;10.40;1.95;;;;;;;16.02;43.53;101207.44;5142818;27;20086;-82
2023/10/11 07:20:47;;;;;;;3.30;1.58;;;;;;;16.03;43.73;101217.16;5145110;27;20027;-82
2023/10/11 07:23:20;;;;;;;11.93;1.88;;;;;;;16.16;43.72;101212.63;5151137;27;20030;-84
2023/10/11 07:25:59;;;;;;;8.48;1.52;;;;;;;15.82;44.02;101198.81;5132537;27;20138;-83
2023/10/11 07:28:35;;;;;;;10.05;2.00;;;;;;;16.09;44.29;101220.81;5127949;27;20092;-81
2023/10/11 07:31:04;;;;;;;4.70;1.60;;;;;;;16.17;43.47;101235.81;5120033;27;20019;-81
2023/10/11 07:33:31;;;;;;;5.90;2.25;;;;;;;16.10;43.09;101211.72;5130624;27;20035;-82
2023/10/11 07:36:00;;;;;;;9.77;2.13;;;;;;;16.52;42.75;101240.53;5129110;28;20110;-82
2023/10/11 07:38:34;;;;;;;9.73;2.30;;;;;;;16.44;42.50;101202.09;5146351;27;20034;-83
2023/10/11 07:41:17;;;;;;;4.97;2.00;;;;;;;16.51;42.77;101217.31;5130830;27;20023;-82
2023/10/11 07:43:45;;;;;;;5.90;2.45;;;;;;;16.62;42.15;101222.75;5129154;28;20023;-82
2023/10/11 07:46:11;;;;;;;4.75;1.83;;;;;;;16.45;42.13;101230.66;5149357;27;20030;-82
2023/10/11 07:48:39;;;;;;;16.42;7.03;;;;;;;16.54;42.62;101222.25;5130796;27;20054;-81
2023/10/11 07:51:10;;;;;;;3.47;1.60;;;;;;;16.86;41.98;101239.81;5147513;27;20019;-81
2023/10/11 07:53:41;;;;;;;4.78;1.40;;;;;;;16.82;41.55;101244.03;5151490;27;20039;-81
2023/10/11 07:56:07;;;;;;;6.47;1.50;;;;;;;16.48;42.63;101203.25;5134613;27;20038;-81
2023/10/11 07:58:35;;;;;;;6.25;1.40;;;;;;;16.42;42.81;101236.50;5129678;28;20035;-81
2023/10/11 08:01:15;;;;;;;8.10;1.60;;;;;;;16.74;42.22;101244.31;5129360;27;20023;-82
2023/10/11 08:03:44;;;;;;;3.33;1.30;;;;;;;16.59;42.37;101246.63;5121047;27;20067;-83
2023/10/11 08:06:15;;;;;;;6.72;2.03;;;;;;;16.44;42.54;101233.59;5132814;27;20453;-82
2023/10/11 08:08:43;;;;;;;4.13;1.40;;;;;;;16.86;41.85;101228.22;5149359;27;20029;-82
2023/10/11 08:11:18;;;;;;;5.38;2.00;;;;;;;17.01;41.76;101222.38;5137425;27;20029;-81
2023/10/11 08:13:53;;;;;;;6.25;1.30;;;;;;;17.38;42.12;101249.91;5113570;28;20032;-82
2023/10/11 08:16:18;;;;;;;7.57;2.17;;;;;;;17.36;41.79;101232.34;5114153;28;20033;-83
2023/10/11 08:18:48;;;;;;;6.90;1.73;;;;;;;17.31;41.81;101243.84;5131883;27;20092;-82
2023/10/11 08:21:17;;;;;;;11.32;5.22;;;;;;;17.55;41.56;101255.44;5133361;27;20050;-84
2023/10/11 08:23:43;;;;;;;11.52;4.03;;;;;;;17.21;42.49;101252.50;5133099;27;20499;-82
2023/10/11 08:26:14;;;;;;;8.85;3.38;;;;;;;16.85;43.27;101235.47;5133729;27;20039;-83
2023/10/11 08:28:47;;;;;;;8.65;1.60;;;;;;;17.42;41.72;101237.59;5133933;27;20069;-80
2023/10/11 08:33:54;;;;;;;3.45;1.33;;;;;;;17.43;41.70;101224.97;5134002;27;20059;-81
2023/10/11 08:36:20;;;;;;;2.95;1.30;;;;;;;17.47;41.85;101220.72;5133656;27;20110;-81
2023/10/11 08:38:46;;;;;;;28.27;3.40;;;;;;;17.33;42.42;101220.16;5133867;27;20107;-81
2023/10/11 08:41:15;;;;;;;99.85;13.25;;;;;;;17.13;43.79;101217.81;5147907;27;20117;-79
2023/10/11 08:43:42;;;;;;;40.40;8.07;;;;;;;17.74;43.21;101245.31;5141455;27;20031;-81
2023/10/11 08:46:12;;;;;;;5.55;1.30;;;;;;;17.66;42.03;101257.28;5132695;27;20023;-81
2023/10/11 08:48:40;;;;;;;7.88;2.15;;;;;;;17.54;42.44;101237.59;5133114;27;20051;-81
2023/10/11 08:51:12;;;;;;;12.63;3.38;;;;;;;17.65;43.16;101249.41;5133876;27;20035;-81
2023/10/11 08:53:47;;;;;;;4.10;1.52;;;;;;;18.02;42.42;101255.38;5135808;27;20035;-80
2023/10/11 08:56:14;;;;;;;6.72;1.50;;;;;;;17.96;42.26;101255.47;5133701;27;20023;-84
2023/10/11 08:58:41;;;;;;;10.95;2.38;;;;;;;17.77;43.17;101252.09;5131576;27;20472;-81
2023/10/11 09:01:07;;;;;;;4.13;1.17;;;;;;;17.94;42.73;101236.00;5144432;27;20027;-80
2023/10/11 09:03:39;;;;;;;3.42;1.38;;;;;;;18.13;41.36;101206.97;5140393;27;20416;-80
2023/10/11 09:06:19;;;;;;;4.40;1.30;;;;;;;17.96;42.28;101250.94;5138984;27;20039;-81
2023/10/11 09:08:47;;;;;;;5.53;1.60;;;;;;;18.25;41.71;101246.34;5145166;27;20046;-80
2023/10/11 09:11:28;;;;;;;;;;;;;;;18.36;43.27;101260.88;5135931;27;20119;-80
2023/10/11 09:14:10;;;;;;;7.75;1.55;;;;;;;18.54;41.87;101251.75;5132895;27;19963;-79
2023/10/11 09:16:35;;;;;;;22.30;9.65;;;;;;;18.92;42.30;101246.72;5132538;27;20035;-80
2023/10/11 09:19:05;;;;;;;7.30;2.95;;;;;;;19.00;41.53;101259.81;5132921;27;20520;-81
2023/10/11 09:21:35;;;;;;;441.95;191.57;;;;;;;18.55;42.07;101263.34;5133389;27;20038;-80
2023/10/11 09:24:01;;;;;;;7.70;3.05;;;;;;;18.58;42.72;101258.28;5135466;27;20066;-80
2023/10/11 09:26:34;;;;;;;2.47;1.20;;;;;;;18.99;41.61;101247.41;5131670;27;20057;-83
2023/10/11 09:29:02;;;;;;;5.65;1.50;;;;;;;19.60;40.93;101261.81;5132590;27;20019;-82
2023/10/11 09:31:31;;;;;;;4.10;1.85;;;;;;;19.63;40.01;101249.66;5142484;27;20027;-80
2023/10/11 09:34:00;;;;;;;10.70;1.70;;;;;;;19.94;40.48;101247.38;5140079;27;20041;-81
2023/10/11 09:36:28;;;;;;;3.90;1.40;;;;;;;20.14;38.77;101246.81;5131518;27;20046;-81
2023/10/11 09:38:56;;;;;;;;;;;;;;;20.36;38.47;101258.41;5136183;27;20036;-82
2023/10/11 09:41:38;;;;;;;53.13;26.63;;;;;;;20.74;37.88;101267.50;5151811;27;19918;-81
2023/10/11 09:44:05;;;;;;;31.27;17.88;;;;;;;20.34;38.98;101247.00;5149140;27;20102;-80
2023/10/11 09:46:34;;;;;;;4.18;1.50;;;;;;;20.20;38.42;101245.78;5130473;27;20403;-81
2023/10/11 09:49:01;;;;;;;7.82;2.17;;;;;;;19.73;38.88;101224.66;5136389;27;20043;-79
2023/10/11 09:51:27;;;;;;;5.47;1.80;;;;;;;19.99;38.84;101245.56;5143749;27;20038;-81
2023/10/11 09:53:53;;;;;;;9.48;1.60;;;;;;;19.79;38.69;101226.34;5130823;27;20264;-80
2023/10/11 09:56:40;;;;;;;39.58;21.42;;;;;;;20.53;38.03;101243.94;5132642;27;20027;-80
2023/10/11 09:59:29;;;;;;;3.05;1.10;;;;;;;20.75;38.16;101220.31;5151459;27;20058;-80
2023/10/11 10:02:21;;;;;;;3.88;1.40;;;;;;;21.22;36.96;101230.41;5142100;27;20039;-81
2023/10/11 10:04:49;;;;;;;25.83;9.88;;;;;;;20.95;37.61;101235.94;5126890;27;20480;-79
2023/10/11 10:07:25;;;;;;;6.05;1.45;;;;;;;20.42;37.78;101219.47;5131854;27;20531;-82
2023/10/11 10:10:05;;;;;;;8.00;1.63;;;;;;;20.93;37.15;101221.00;5134972;27;20072;-80
2023/10/11 10:12:55;;;;;;;4.13;1.48;;;;;;;21.17;38.02;101224.97;5131255;27;20038;-80
2023/10/11 10:15:28;;;;;;;5.05;1.25;;;;;;;20.82;37.24;101225.50;5140477;27;20163;-81
2023/10/11 10:17:56;;;;;;;6.90;1.90;;;;;;;20.83;37.49;101216.31;5144417;27;20023;-80
2023/10/11 10:20:34;;;;;;;8.98;1.83;;;;;;;21.13;37.41;101210.31;5152177;27;20031;-79
2023/10/11 10:23:15;;;;;;;2.55;1.20;;;;;;;20.52;38.19;101215.22;5134162;27;20027;-82
2023/10/11 10:25:48;;;;;;;10.55;3.38;;;;;;;20.86;38.38;101222.06;5127391;27;20148;-80
2023/10/11 10:28:45;;;;;;;6.22;1.63;;;;;;;20.19;38.84;101211.66;5136507;27;20027;-81
2023/10/11 10:31:13;;;;;;;11.15;2.63;;;;;;;20.99;40.11;101199.09;5144215;27;20063;-80
2023/10/11 10:33:46;;;;;;;5.30;2.10;;;;;;;21.32;37.90;101188.16;5136774;27;20041;-82
2023/10/11 10:36:18;;;;;;;8.65;1.92;;;;;;;21.90;37.17;101197.09;5138923;27;20034;-81
2023/10/11 10:41:40;;;;;;;6.75;2.17;;;;;;;22.46;36.85;101193.72;5132857;27;20043;-85
2023/10/11 10:44:17;;;;;;;6.95;1.92;;;;;;;21.71;37.66;101177.78;5148418;27;20057;-82
2023/10/11 10:46:53;;;;;;;237.43;71.32;;;;;;;22.18;37.02;101174.09;5150991;27;20169;-81
2023/10/11 10:49:29;;;;;;;7.13;2.05;;;;;;;20.94;38.73;101166.50;5110290;28;20035;-82
2023/10/11 10:51:57;;;;;;;9.65;5.13;;;;;;;21.24;38.09;101162.34;5117665;27;20050;-81
2023/10/11 10:54:23;;;;;;;3.45;1.52;;;;;;;21.10;38.18;101167.41;5143939;27;20023;-80
2023/10/11 10:56:53;;;;;;;6.93;1.70;;;;;;;21.49;37.86;101158.97;5129286;27;20551;-82
2023/10/11 10:59:21;;;;;;;7.20;1.90;;;;;;;21.91;36.84;101149.88;5131818;27;20404;-81
2023/10/11 11:01:48;;;;;;;20.88;7.03;;;;;;;22.74;35.67;101157.03;5147536;27;20479;-82
2023/10/11 11:04:18;;;;;;;11.40;4.10;;;;;;;22.84;35.19;101145.28;5130882;27;20039;-84
2023/10/11 11:06:46;;;;;;;4.93;1.92;;;;;;;22.36;38.48;101132.03;5129125;27;20031;-82
2023/10/11 11:09:19;;;;;;;4.30;2.15;;;;;;;23.05;35.85;101157.00;5130655;27;20027;-82
2023/10/11 11:11:46;;;;;;;7.03;1.77;;;;;;;22.83;36.52;101128.16;5129791;27;20035;-83
2023/10/11 11:14:13;;;;;;;6.65;1.65;;;;;;;23.24;35.03;101149.84;5130420;27;20029;-83
2023/10/11 11:16:39;;;;;;;5.63;1.52;;;;;;;21.79;37.29;101122.16;5141955;27;20081;-82
2023/10/11 11:19:18;;;;;;;15.98;2.35;;;;;;;22.57;36.14;101132.00;5134934;27;20031;-82
2023/10/11 11:21:46;;;;;;;6.35;2.10;;;;;;;22.91;35.11;101150.47;5129717;27;20039;-82
2023/10/11 11:24:27;;;;;;;7.18;2.15;;;;;;;21.90;36.97;101153.66;5132146;27;20057;-83
2023/10/11 11:26:53;;;;;;;5.85;2.22;;;;;;;22.03;36.36;101141.47;5129542;28;20027;-82
2023/10/11 11:29:31;;;;;;;26.85;10.07;;;;;;;22.15;36.69;101135.75;5146019;27;20027;-83
2023/10/11 11:31:59;;;;;;;9.93;4.07;;;;;;;22.27;36.55;101126.31;5130775;27;20027;-83
2023/10/11 11:34:28;;;;;;;4.55;2.17;;;;;;;22.67;36.09;101135.53;5130510;27;20035;-82
2023/10/11 11:36:58;;;;;;;4.18;1.63;;;;;;;23.33;34.65;101119.34;5139850;27;20050;-82
2023/10/11 11:39:27;;;;;;;138.20;79.07;;;;;;;23.26;34.96;101128.63;5146545;27;20030;-83
2023/10/11 11:41:57;;;;;;;7.45;2.75;;;;;;;22.62;36.87;101134.75;5136783;27;20031;-82
2023/10/11 11:44:24;;;;;;;2.75;1.35;;;;;;;22.04;36.30;101130.31;5134048;27;20030;-84
2023/10/11 11:46:51;;;;;;;18.85;10.85;;;;;;;22.21;36.36;101113.78;5155601;27;20478;-83
2023/10/11 11:49:22;;;;;;;2.97;1.42;;;;;;;22.67;35.59;101111.06;5141247;27;20066;-83
2023/10/11 11:51:51;;;;;;;8.95;3.33;;;;;;;23.47;34.78;101095.84;5147920;27;20033;-83
2023/10/11 11:54:20;;;;;;;7.03;2.40;;;;;;;23.89;34.36;101110.91;5153555;27;20053;-83
2023/10/11 11:56:46;;;;;;;7.60;2.17;;;;;;;24.17;33.92;101112.06;5135641;27;20031;-83
2023/10/11 11:59:17;;;;;;;5.43;1.65;;;;;;;24.25;33.13;101096.97;5134548;27;20023;-82
2023/10/11 12:01:45;;;;;;;4.28;1.75;;;;;;;24.74;32.42;101117.81;5148514;27;20704;-83
2023/10/11 12:04:11;;;;;;;5.00;1.95;;;;;;;24.24;32.27;101098.09;5142835;27;20110;-83
2023/10/11 12:06:37;;;;;;;13.30;5.88;;;;;;;23.66;33.49;101107.75;5138299;27;20023;-85
2023/10/11 12:09:06;;;;;;;16.50;8.52;;;;;;;24.82;31.90;101098.09;5134263;27;20480;-82
2023/10/11 12:11:34;;;;;;;4.65;1.58;;;;;;;24.56;32.27;101105.75;5134426;27;20027;-82
2023/10/11 12:14:03;;;;;;;4.30;1.60;;;;;;;25.03;31.61;101108.81;5142950;27;20546;-83
2023/10/11 12:16:29;;;;;;;38.53;21.58;;;;;;;24.17;32.90;101084.81;5138050;27;20031;-84
2023/10/11 12:18:59;;;;;;;29.88;17.52;;;;;;;23.39;33.89;101088.28;5138359;27;20114;-84
2023/10/11 12:21:28;;;;;;;4.85;2.20;;;;;;;22.51;36.06;101071.38;5149589;27;20544;-83
2023/10/11 12:23:54;;;;;;;5.57;2.05;;;;;;;23.77;34.19;101085.91;5133157;27;20627;-83
2023/10/11 12:26:20;;;;;;;5.35;1.67;;;;;;;24.17;32.54;101070.34;5133234;27;20023;-83
2023/10/11 12:28:47;;;;;;;24.58;5.85;;;;;;;24.83;32.21;101053.34;5136256;27;20125;-82
2023/10/11 12:31:12;;;;;;;15.03;4.47;;;;;;;25.46;31.13;101076.09;5152329;27;20086;-82
2023/10/11 12:33:39;;;;;;;6.05;2.10;;;;;;;26.02;30.43;101082.63;5135995;27;20014;-84
2023/10/11 12:36:07;;;;;;;4.95;1.90;;;;;;;26.19;30.06;101082.88;5146462;27;20453;-83
2023/10/11 12:38:37;;;;;;;6.10;1.75;;;;;;;25.76;30.08;101080.25;5133622;27;20023;-84